Flight Track Log - Related Links

Times and Time Zones

All times are in EDT time to prevent confusion due to time zone crossing. See the EJA380 flight status page for this flight to view local times or setup timezone preferences in your user account.

Time Position Orientation Groundspeed Altitude Reporting Facility
EDT Latitude Longitude Course Direction KTS MPH feet Rate Location/Type
Sat 01:20:24 AM 41.1000 -73.8000 270° West 245 282 3,800  Level New York TRACON
Sat 01:21:24 AM 41.0667 -73.8833 242° Southwest 257 296 6,400 2,100 Climbing New York TRACON
Sat 01:22:24 AM 41.0333 -73.9667 242° Southwest 279 321 8,000 800 Climbing New York TRACON
Sat 01:23:24 AM 40.9833 -74.0333 225° Southwest 264 304 8,000 -365 Level New York TRACON
Sat 01:24:19 AM 40.9333 -74.1000 225° Southwest 271 312 7,300 -1,043 Descending New York TRACON
Sat 01:25:00 AM 41.0668 -74.4146 270° West  Level FlightAware Approximate
Sat 01:25:19 AM 40.8833 -74.1667 225° Southwest 268 308 6,000  Level New York TRACON
Sat 01:26:25 AM 40.8167 -74.2500 223° Southwest 263 303 4,500 -952 Descending New York TRACON
Sat 01:27:25 AM 40.7667 -74.3167 225° Southwest 258 297 4,000 -250 Descending New York TRACON
Sat 01:28:25 AM 40.7167 -74.3667 217° Southwest 255 293 4,000  Level New York TRACON
Sat 01:29:25 AM 40.6500 -74.4333 217° Southwest 259 298 4,000  Level New York TRACON
Sat 01:30:25 AM 40.6000 -74.5000 225° Southwest 259 298 4,000  Level New York TRACON
Sat 01:31:25 AM 40.5500 -74.5667 225° Southwest 262 302 4,000  Level New York TRACON
Sat 01:33:36 AM 40.4333 -74.7000 221° Southwest 268 308 4,000  Level Philadelphia TRACON
Sat 01:34:36 AM 40.3667 -74.7667 217° Southwest 271 312 4,000  Level Philadelphia TRACON
Sat 01:35:36 AM 40.3000 -74.8000 201° Southwest 278 320 4,000 -100 Level Philadelphia TRACON
Sat 01:36:36 AM 40.2333 -74.8000 180° South 279 321 3,800 -450 Descending Philadelphia TRACON
Sat 01:37:36 AM 40.1667 -74.8167 191° South 210 242 3,100 -400 Descending Philadelphia TRACON
Sat 01:38:36 AM 40.1000 -74.8000 169° South 225 259 3,000 -50 Descending Philadelphia TRACON
Sat 01:39:36 AM 40.0333 -74.7667 159° South 232 267 3,000  Level Philadelphia TRACON
Sat 01:40:36 AM 40.0000 -74.8167 229° Southwest 193 222 3,000 -450 Level Philadelphia TRACON
Sat 01:41:36 AM 39.9833 -74.8833 252° West 175 201 2,100 -550 Descending Philadelphia TRACON
Sat 01:42:36 AM 40.0000 -74.9333 294° West 132 152 1,900 -400 Descending Philadelphia TRACON
Sat 01:43:36 AM 40.0333 -74.9500 339° North 95 109 1,300 -550 Descending Philadelphia TRACON
Sat 01:44:36 AM 40.0500 -74.9833 303° West 100 115 800 -500 Descending Philadelphia TRACON
Sat 01:45:36 AM 40.0667 -75.0000 323° Northwest 97 112 300 -350 Descending Philadelphia TRACON
Sat 01:46:36 AM 40.0833 -75.0167 323° Northwest 70 81 100 -200 Descending Philadelphia TRACON

Login

Don't have an account? Register now (free) for customized features, flight alerts, and more!